KMGC/MGC METAR and TAF weather

Enter ICAO airport designator
Station Type Date Time Source
KMGC METAR 2021/09/27 08:15 UTC NOAA

KMGC 270815Z AUTO 20011G17KT 10SM CLR 18/11 A2983 RMK AO2


Station Type Date Time Source
KMGC Decoded METAR 2021/09/27 08:15 UTC NOAA

Station name not available
Sep 27, 2021 - 04:15 AM EDT / 2021.09.27 0815 UTC
Wind: from the SSW (200 degrees) at 13 MPH (11 KT) gusting to 20 MPH (17 KT):0
Visibility: 10 mile(s):0
Sky conditions: clear
Temperature: 64 F (18 C)
Dew Point: 51 F (11 C)
Relative Humidity: 63%
Pressure (altimeter): 29.83 in. Hg (1010 hPa)
ob: KMGC 270815Z AUTO 20011G17KT 10SM CLR 18/11 A2983 RMK AO2
cycle: 8

Station Type Date Time Source
KMGC TAF UTC NOAA

Error!

Example: see airport list